Data for 08/31/2016

Time Sea-Level Adjusted Pressure Absolute Pressure Temperature Relative Humidity Dew Point   
(mb) (inHg) (mb) (inHg) (C) (F) (%) (C) (F)
00:05 1020 30.12 849 25.07 24.1 75.3 24 2.6 36.7
00:10 1020 30.12 849 25.07 24.2 75.5 24 2.6 36.8
00:15 1020 30.12 849 25.07 24.2 75.6 24 2.7 36.9
00:20 1020 30.12 849 25.07 24.1 75.3 25 2.8 37.1
00:25 1020 30.12 849 25.07 23.9 75.1 24 2.6 36.7
00:30 1020 30.12 849 25.07 24 75.3 24 2.6 36.8
00:35 1020 30.12 849 25.07 24 75.1 24 2.6 36.7
00:40 1020 30.12 849 25.07 23.8 74.9 25 2.6 36.8
00:45 1020 30.12 849 25.07 23.7 74.7 25 2.8 37
00:50 1020 30.12 849 25.07 23.7 74.6 25 2.6 36.6
00:55 1020 30.12 849 25.07 23.7 74.7 25 2.7 36.8
01:00 1020 30.12 849 25.07 23.7 74.6 25 2.7 36.9
01:05 1020 30.12 849 25.07 23.6 74.4 25 2.8 37
01:10 1020 30.12 849 25.07 23.3 74 26 2.8 37.1
01:15 1020 30.12 849 25.07 23.3 73.9 26 2.8 37
01:20 1020 30.12 849 25.07 23.2 73.8 26 2.6 36.7
01:25 1020 30.12 849 25.07 23.2 73.8 26 2.8 37
01:30 1020 30.12 849 25.07 23.1 73.5 26 2.8 37
01:35 1020 30.12 849 25.07 23.1 73.5 26 2.7 36.8
01:40 1020 30.12 849 25.07 23 73.5 26 2.7 36.9
01:45 1020 30.12 849 25.07 22.9 73.3 26 2.7 36.8
01:50 1020 30.12 849 25.07 23 73.4 26 2.9 37.2
01:55 1020 30.12 849 25.07 22.8 73.1 26 2.8 37
02:00 1020 30.12 849 25.07 22.5 72.5 28 3.1 37.6
02:05 1020 30.12 849 25.07 22 71.7 28 3.1 37.6
02:10 1020 30.12 849 25.07 21.9 71.4 28 3 37.4
02:15 1020 30.12 849 25.07 21.8 71.2 29 3.1 37.6
02:20 1020 30.12 849 25.07 21.7 71 29 2.8 37.1
02:25 1020 30.12 849 25.07 21.9 71.4 29 3.1 37.6
02:30 1020 30.12 849 25.07 22 71.5 28 2.7 36.9
02:35 1020 30.12 849 25.07 22.1 71.7 28 3 37.5
02:40 1020 30.12 849 25.07 22 71.5 28 2.8 37.1
02:45 1020 30.12 849 25.07 22 71.6 28 3 37.3
02:50 1020 30.12 849 25.07 21.7 71.1 29 2.9 37.3
02:55 1020 30.12 849 25.07 21.6 70.8 29 3.1 37.5
03:00 1020 30.12 849 25.07 21.6 70.8 29 3.1 37.6
03:05 1020 30.12 849 25.07 21.5 70.6 29 2.9 37.3
03:10 1020 30.12 849 25.07 21.5 70.7 29 3 37.4
03:15 1020 30.12 849 25.07 21.4 70.6 29 3.1 37.5
03:20 1020 30.12 849 25.07 21.3 70.4 30 3.1 37.5
03:25 1020 30.12 849 25.07 21.3 70.4 29 3 37.4
03:30 1020 30.12 849 25.07 21.4 70.5 29 3 37.3
03:35 1020 30.12 849 25.07 21.3 70.3 30 3.1 37.5
03:40 1020 30.12 849 25.07 21.2 70.1 30 3 37.4
03:45 1020 30.12 849 25.07 21.2 70.1 29 2.8 37
03:50 1020 30.12 849 25.07 21.3 70.4 29 2.7 36.9
03:55 1020 30.12 849 25.07 21.4 70.5 29 2.8 37
04:00 1020 30.12 849 25.07 21.4 70.6 29 2.8 37
04:05 1020 30.12 849 25.07 21.4 70.6 28 2.5 36.5
04:10 1020 30.12 849 25.07 21.6 70.8 28 2.7 36.8
04:15 1020 30.12 849 25.07 21.6 70.9 28 2.7 36.9
04:20 1020 30.12 849 25.07 21.5 70.6 29 2.7 36.8
04:25 1020 30.12 849 25.07 21.4 70.5 28 2.5 36.5
04:30 1020 30.12 849 25.07 21.5 70.8 27 2.2 35.9
04:35 1020 30.12 849 25.07 21.8 71.2 27 2.3 36.1
04:40 1020 30.12 849 25.07 21.8 71.2 27 2.3 36.2
04:45 1020 30.12 849 25.07 21.7 71.1 27 2.2 36
04:50 1020 30.12 849 25.07 21.7 71 27 2.3 36.1
04:55 1020 30.12 849 25.07 21.6 70.8 27 2.1 35.8
05:00 1020 30.12 849 25.07 21.6 70.8 27 1.9 35.5
05:05 1020 30.12 849 25.07 21.6 70.8 27 1.9 35.4
05:10 1020 30.12 849 25.07 21.5 70.6 27 2.1 35.7
05:15 1020 30.12 849 25.07 21.2 70.1 28 2.2 35.9
05:20 1020 30.12 849 25.07 21 69.7 29 2.2 36
05:25 1020 30.12 849 25.07 20.7 69.3 29 2.3 36.1
05:30 1020 30.12 849 25.07 20.5 69 29 2.2 35.9
05:35 1020 30.12 849 25.07 20.5 68.9 29 2.2 36
05:40 1020 30.12 849 25.07 20.5 68.9 29 2.2 36
05:45 1020 30.12 849 25.07 20.4 68.7 29 2.2 35.9
05:50 1020 30.12 849 25.07 20.2 68.4 30 2.3 36.2
05:55 1020 30.12 849 25.07 20 68 30 2.2 36
06:00 1020 30.12 849 25.07 19.9 67.7 30 2.1 35.8
06:05 1020 30.12 849 25.07 19.8 67.7 30 2 35.7
06:10 1020 30.12 849 25.07 19.7 67.5 30 1.9 35.3
06:15 1020 30.12 849 25.07 19.7 67.5 30 1.9 35.5
06:20 1020 30.12 849 25.07 19.5 67 31 2 35.6
06:25 1020 30.12 849 25.07 19.2 66.5 32 2.1 35.7
06:30 1020 30.12 849 25.07 18.9 66.1 33 2.3 36.1
06:35 1020 30.12 849 25.07 18.7 65.6 34 2.6 36.6
06:40 1020 30.12 849 25.07 18.5 65.2 32 1.5 34.8
06:45 1020 30.12 849 25.07 18.5 65.2 34 2.6 36.6
06:50 1020 30.12 849 25.07 18.5 65.3 29 0.3 32.5
06:55 1020 30.12 849 25.07 18.6 65.4 29 0.2 32.3
07:00 1020 30.12 849 25.07 18.5 65.3 28 -0.1 31.8
07:05 1020 30.12 849 25.07 18.5 65.4 28 -0 31.9
07:10 1020 30.12 849 25.07 18.5 65.3 29 0.5 32.8
07:15 1020 30.12 850 25.1 18.6 65.5 28 -0.3 31.4
07:20 1020 30.12 850 25.1 18.6 65.4 28 -0.2 31.6
07:25 1020 30.12 850 25.1 18.6 65.5 29 0.2 32.4
07:30 1020 30.12 850 25.1 18.5 65.2 30 0.6 33.1
07:35 1020 30.12 850 25.1 18.4 65.2 27 -0.7 30.7
07:40 1020 30.12 850 25.1 18.8 65.8 27 -0.3 31.5
07:45 1020 30.12 850 25.1 18.8 65.9 28 0 32
07:50 1021 30.15 850 25.1 18.6 65.5 29 0.4 32.8
07:55 1021 30.15 850 25.1 18.3 64.9 26 -1.3 29.6
08:00 1021 30.15 850 25.1 19 66.1 28 0.1 32.2
08:05 1021 30.15 850 25.1 19.1 66.4 29 0.8 33.4
08:10 1021 30.15 850 25.1 19 66.1 33 2.7 36.8
08:15 1021 30.15 850 25.1 18.4 65.1 33 1.9 35.3
08:20 1021 30.15 850 25.1 18.6 65.5 34 2.5 36.5
08:25 1021 30.15 850 25.1 18.4 65 33 2 35.7
08:30 1021 30.15 850 25.1 18.8 65.8 33 2.3 36.1
08:35 1021 30.15 850 25.1 19.5 67.2 31 2.1 35.7
08:40 1021 30.15 850 25.1 19.3 66.7 32 2.5 36.6
08:45 1021 30.15 850 25.1 19.7 67.5 31 2.4 36.4
08:50 1021 30.15 850 25.1 20.5 68.9 30 2.6 36.6
08:55 1021 30.15 850 25.1 20.6 69 31 3 37.4
09:00 1021 30.15 850 25.1 21 69.7 29 2.6 36.8
09:05 1021 30.15 850 25.1 21.2 70.2 29 2.9 37.2
09:10 1020 30.12 850 25.1 21.5 70.6 30 3.2 37.8
09:15 1020 30.12 850 25.1 21.7 71 29 2.8 37.1
09:20 1020 30.12 850 25.1 22.2 71.9 28 3.1 37.6
09:25 1020 30.12 850 25.1 22.1 71.8 29 3.4 38.1
09:30 1020 30.12 850 25.1 22.5 72.5 28 3.1 37.6
09:35 1020 30.12 850 25.1 23.2 73.7 25 2.3 36.1
09:40 1020 30.12 850 25.1 23.5 74.3 24 2.2 35.9
09:45 1020 30.12 849 25.07 23.5 74.3 25 2.3 36.2
09:50 1020 30.12 849 25.07 23.6 74.5 25 2.8 37
09:55 1020 30.12 849 25.07 23.4 74.2 26 2.8 37
10:00 1020 30.12 849 25.07 24 75.1 24 2.5 36.4
10:05 1020 30.12 849 25.07 24 75.2 24 2.1 35.9
10:10 1020 30.12 849 25.07 24 75.3 23 1.9 35.3
10:15 1020 30.12 849 25.07 24.4 75.9 23 2.3 36.1
10:20 1020 30.12 849 25.07 24.1 75.4 23 1.8 35.3
10:25 1020 30.12 849 25.07 24.6 76.2 23 2.4 36.4
10:30 1020 30.12 849 25.07 25.1 77.1 23 2.4 36.4
10:35 1020 30.12 849 25.07 25.3 77.6 23 2.9 37.2
10:40 1020 30.12 849 25.07 25.2 77.4 24 3.2 37.8
10:45 1020 30.12 849 25.07 25.2 77.4 25 3.9 39
10:50 1020 30.12 849 25.07 25.6 78.2 24 3.6 38.4
10:55 1020 30.12 849 25.07 26 78.8 23 3.5 38.3
11:00 1020 30.12 849 25.07 26.3 79.4 24 4.3 39.7
11:05 1020 30.12 849 25.07 26.4 79.6 24 4.3 39.8
11:10 1020 30.12 849 25.07 26.6 79.9 25 5 41.1
11:15 1020 30.12 849 25.07 26.8 80.3 23 4.4 40
11:20 1020 30.12 849 25.07 27 80.7 24 5 41.1
11:25 1020 30.12 849 25.07 26.8 80.2 24 4.8 40.7
11:30 1020 30.12 849 25.07 26.8 80.2 23 4.4 39.9
11:35 1020 30.12 849 25.07 27 80.5 23 4.2 39.6
11:40 1020 30.12 849 25.07 27.2 80.9 22 4.2 39.5
11:45 1019 30.09 849 25.07 27.7 81.9 23 4.8 40.6
11:50 1019 30.09 849 25.07 28.1 82.5 23 5.3 41.5
11:55 1019 30.09 848 25.04 27.7 81.9 22 4.3 39.7
12:00 1019 30.09 848 25.04 27.4 81.3 25 5.8 42.5
12:05 1019 30.09 848 25.04 27.7 81.8 24 5.3 41.6
12:10 1019 30.09 848 25.04 27.9 82.2 23 5.2 41.4
12:15 1019 30.09 848 25.04 28.1 82.7 22 5 40.9
12:20 1019 30.09 848 25.04 28.8 83.9 20 4.3 39.7
12:25 1019 30.09 848 25.04 29.1 84.4 22 5.4 41.7
12:30 1019 30.09 848 25.04 28.9 84.1 21 4.5 40.1
12:35 1019 30.09 848 25.04 28.8 83.8 22 5.2 41.3
12:40 1019 30.09 848 25.04 28.3 82.9 22 4.9 40.7
12:45 1019 30.09 848 25.04 28.6 83.6 21 4.4 40
12:50 1019 30.09 848 25.04 29.5 85 21 5.2 41.3
12:55 1019 30.09 848 25.04 29.7 85.4 19 3.8 38.9
13:00 1019 30.09 848 25.04 30.1 86.2 18 3.2 37.7
13:05 1019 30.09 848 25.04 30.4 86.6 19 4.7 40.5
13:10 1019 30.09 848 25.04 29.7 85.5 18 3.5 38.3
13:15 1019 30.09 848 25.04 28.9 84 19 3 37.3
13:20 1018 30.06 848 25.04 28.6 83.4 19 3.3 37.9
13:25 1018 30.06 848 25.04 29.7 85.5 18 2.8 37.1
13:30 1018 30.06 847 25.01 30.1 86.1 18 3.4 38.2
13:35 1018 30.06 847 25.01 30 85.9 16 2.1 35.8
13:40 1018 30.06 847 25.01 30.3 86.5 16 1.7 35
13:45 1018 30.06 847 25.01 30.5 87 15 1.7 35.1
13:50 1018 30.06 847 25.01 30.1 86.2 15 1.3 34.4
13:55 1018 30.06 847 25.01 30.2 86.4 15 1 33.8
14:00 1018 30.06 847 25.01 30.2 86.4 15 1.3 34.3
14:05 1018 30.06 847 25.01 30.4 86.7 15 1.2 34.2
14:10 1018 30.06 847 25.01 30.7 87.2 15 1.4 34.5
14:15 1018 30.06 847 25.01 30.7 87.3 15 1.2 34.2
14:20 1018 30.06 847 25.01 30.5 86.8 18 3.7 38.6
14:25 1018 30.06 847 25.01 29.8 85.6 20 4.9 40.8
14:30 1018 30.06 847 25.01 28.7 83.7 22 5.3 41.5
14:35 1018 30.06 847 25.01 28.4 83.1 23 5.6 42
14:40 1018 30.06 847 25.01 28.9 83.9 21 5 41
14:45 1018 30.06 847 25.01 29.5 85.1 23 6.2 43.2
14:50 1018 30.06 847 25.01 29.6 85.2 22 6 42.8
14:55 1018 30.06 847 25.01 29.4 84.9 22 5.9 42.7
15:00 1018 30.06 847 25.01 29.8 85.6 20 4.9 40.9
15:05 1018 30.06 847 25.01 30.2 86.4 23 7.1 44.7
15:10 1018 30.06 847 25.01 30.7 87.3 17 3.2 37.7
15:15 1018 30.06 847 25.01 30.9 87.7 17 3.2 37.8
15:20 1018 30.06 847 25.01 30.8 87.4 17 3.6 38.5
15:25 1018 30.06 847 25.01 30.3 86.6 22 6.9 44.4
15:30 1018 30.06 847 25.01 29.6 85.3 23 6.8 44.2
15:35 1018 30.06 847 25.01 29.5 85.1 23 6.5 43.6
15:40 1018 30.06 847 25.01 30 85.9 19 4.2 39.6
15:45 1018 30.06 847 25.01 29.8 85.6 14 -0.3 31.4
15:50 1017 30.03 847 25.01 30.7 87.2 9 -5.3 22.5
15:55 1017 30.03 847 25.01 31.1 87.9 10 -4.3 24.3
16:00 1017 30.03 846 24.98 31 87.9 11 -2.7 27.1
16:05 1017 30.03 846 24.98 30.8 87.5 12 -1.9 28.6
16:10 1017 30.03 846 24.98 30.7 87.3 11 -2.9 26.8
16:15 1017 30.03 846 24.98 30.9 87.7 10 -4.2 24.5
16:20 1017 30.03 846 24.98 31.4 88.4 10 -4.2 24.5
16:25 1017 30.03 846 24.98 31 87.8 10 -4 24.8
16:30 1017 30.03 847 25.01 30.9 87.6 10 -4.6 23.7
16:35 1017 30.03 847 25.01 31.1 87.9 10 -3.3 26
16:40 1017 30.03 846 24.98 30.6 87.2 10 -3.7 25.4
16:45 1017 30.03 847 25.01 30.6 87 10 -3.6 25.6
16:50 1017 30.03 847 25.01 31 87.8 9 -4.6 23.7
16:55 1018 30.06 847 25.01 30.9 87.6 10 -3.6 25.4
17:00 1018 30.06 847 25.01 30.9 87.6 10 -4.6 23.7
17:05 1017 30.03 847 25.01 31.3 88.3 10 -4 24.9
17:10 1017 30.03 846 24.98 31 87.7 11 -2.3 27.8
17:15 1017 30.03 846 24.98 30.6 87 13 -0.5 31.1
17:20 1017 30.03 846 24.98 30.3 86.6 12 -2 28.4
17:25 1017 30.03 846 24.98 30.2 86.4 12 -2.6 27.4
17:30 1017 30.03 846 24.98 30 86 12 -2.3 27.9
17:35 1017 30.03 846 24.98 29.8 85.6 12 -2.3 27.9
17:40 1017 30.03 846 24.98 29.6 85.3 12 -2.2 28
17:45 1017 30.03 846 24.98 29.6 85.3 12 -2.3 27.8
17:50 1017 30.03 846 24.98 29.7 85.5 12 -2.7 27.2
17:55 1017 30.03 846 24.98 29.8 85.6 11 -3.5 25.7
18:00 1017 30.03 846 24.98 29.9 85.9 11 -3.1 26.4
18:05 1017 30.03 846 24.98 29.8 85.7 13 -1.4 29.6
18:10 1017 30.03 846 24.98 29.7 85.5 12 -2.4 27.7
18:15 1017 30.03 846 24.98 29.7 85.4 12 -3 26.7
18:20 1017 30.03 846 24.98 29.8 85.6 13 -1.5 29.3
18:25 1017 30.03 846 24.98 29.7 85.4 11 -3.7 25.3
18:30 1017 30.03 846 24.98 29.9 85.8 11 -3.6 25.5
18:35 1017 30.03 846 24.98 29.9 85.8 11 -3 26.6
18:40 1017 30.03 846 24.98 29.9 85.8 15 0.4 32.7
18:45 1017 30.03 846 24.98 29.7 85.4 12 -2.5 27.4
18:50 1017 30.03 846 24.98 29.1 84.4 12 -2.4 27.6
18:55 1017 30.03 846 24.98 29 84.1 12 -2.7 27.1
19:00 1017 30.03 846 24.98 29 84.2 12 -2.8 27
19:05 1017 30.03 846 24.98 29 84.1 14 -1.2 29.8
19:10 1017 30.03 847 25.01 28.5 83.3 14 -1 30.2
19:15 1017 30.03 847 25.01 28.1 82.6 15 -0.6 31
19:20 1017 30.03 847 25.01 27.7 81.9 16 -0.5 31.1
19:25 1017 30.03 847 25.01 27.3 81.2 15 -0.9 30.4
19:30 1017 30.03 847 25.01 27.1 80.8 16 -1 30.2
19:35 1017 30.03 847 25.01 27.1 80.7 17 -0.1 31.8
19:40 1017 30.03 847 25.01 26.9 80.5 15 -1.2 29.8
19:45 1017 30.03 847 25.01 26.8 80.3 16 -0.6 31
19:50 1017 30.03 847 25.01 26.8 80.2 16 -1.3 29.7
19:55 1017 30.03 847 25.01 26.8 80.2 16 -0.5 31.2
20:00 1018 30.06 847 25.01 26.2 79.1 21 2.2 35.9
20:05 1018 30.06 847 25.01 25.5 77.8 19 0.3 32.6
20:10 1018 30.06 847 25.01 25.9 78.5 19 1 33.8
20:15 1018 30.06 847 25.01 25.5 78 20 0.9 33.7
20:20 1018 30.06 847 25.01 25.4 77.8 19 0.4 32.8
20:25 1018 30.06 847 25.01 25.4 77.8 19 0.2 32.4
20:30 1018 30.06 847 25.01 25.6 78 18 0.1 32.1
20:35 1018 30.06 847 25.01 25.7 78.2 18 -0.5 31.2
20:40 1018 30.06 847 25.01 25.8 78.4 23 3.1 37.6
20:45 1018 30.06 847 25.01 25.2 77.4 21 1.6 34.8
20:50 1018 30.06 847 25.01 24.7 76.4 20 0.7 33.2
20:55 1018 30.06 847 25.01 24.8 76.6 20 0.9 33.6
21:00 1018 30.06 847 25.01 24.4 75.9 22 1.5 34.7
21:05 1018 30.06 847 25.01 23.9 75 22 1.4 34.6
21:10 1018 30.06 847 25.01 23.6 74.6 21 0.5 32.8
21:15 1018 30.06 847 25.01 23.5 74.3 22 0.8 33.5
21:20 1018 30.06 847 25.01 23.9 74.9 20 -0.1 31.9
21:25 1018 30.06 847 25.01 24.3 75.8 20 0.4 32.7
21:30 1018 30.06 847 25.01 24.4 75.8 19 -0.2 31.6
21:35 1018 30.06 847 25.01 24.2 75.5 20 -0.2 31.6
21:40 1018 30.06 847 25.01 24.1 75.3 20 0 32
21:45 1017 30.03 847 25.01 23.9 75.1 19 -0.6 31
21:50 1017 30.03 847 25.01 24.5 76.1 18 -1.1 30
21:55 1017 30.03 847 25.01 24.7 76.5 19 -0.2 31.7
22:00 1018 30.06 847 25.01 24.2 75.6 21 0.6 33.2
22:05 1018 30.06 847 25.01 23.8 74.9 22 0.9 33.6
22:10 1018 30.06 847 25.01 23.4 74.2 22 0.7 33.3
22:15 1018 30.06 847 25.01 23.1 73.6 22 0.6 33.2
22:20 1018 30.06 847 25.01 22.9 73.2 24 1.5 34.8
22:25 1018 30.06 847 25.01 22 71.5 27 2.2 35.9
22:30 1018 30.06 847 25.01 21 69.8 26 1.1 33.9
22:35 1018 30.06 847 25.01 21.5 70.6 25 0.7 33.2
22:40 1018 30.06 847 25.01 21.2 70.1 27 1.7 35.1
22:45 1018 30.06 847 25.01 20.4 68.7 28 1.4 34.5
22:50 1018 30.06 847 25.01 20.4 68.7 27 0.8 33.5
22:55 1018 30.06 847 25.01 20.7 69.2 25 0.1 32.1
23:00 1018 30.06 847 25.01 21.2 70.2 25 0.8 33.4
23:05 1018 30.06 847 25.01 21 69.8 26 0.8 33.4
23:10 1018 30.06 847 25.01 20.7 69.3 26 0.5 32.9
23:15 1018 30.06 847 25.01 20.4 68.8 26 0.4 32.6
23:20 1018 30.06 847 25.01 20.7 69.2 25 0 32
23:25 1018 30.06 847 25.01 20.6 69 26 0.8 33.5
23:30 1018 30.06 847 25.01 20.1 68.1 28 1.1 34
23:35 1018 30.06 847 25.01 19.6 67.2 29 1.4 34.4
23:40 1018 30.06 847 25.01 19.1 66.3 29 1 33.8
23:45 1018 30.06 847 25.01 19.1 66.5 28 0.4 32.8
23:50 1018 30.06 847 25.01 19.3 66.8 29 0.9 33.6
23:55 1018 30.06 847 25.01 19.1 66.3 28 0.2 32.4
24:00 1018 30.06 847 25.01 19.2 66.5 29 0.9 33.6